sensor_id;sensor_type;location;lat;lon;timestamp;temperature;humidity
71668;DHT22;59504;54.806;9.640;2022-11-20T00:00:24;2.20;73.20
71668;DHT22;59504;54.806;9.640;2022-11-20T00:02:43;2.20;73.30
71668;DHT22;59504;54.806;9.640;2022-11-20T00:05:03;2.20;73.20
71668;DHT22;59504;54.806;9.640;2022-11-20T00:07:22;2.20;73.10
71668;DHT22;59504;54.806;9.640;2022-11-20T00:09:41;2.20;73.20
71668;DHT22;59504;54.806;9.640;2022-11-20T00:12:00;2.20;73.00
71668;DHT22;59504;54.806;9.640;2022-11-20T00:14:20;2.20;73.00
71668;DHT22;59504;54.806;9.640;2022-11-20T00:16:39;2.20;73.00
71668;DHT22;59504;54.806;9.640;2022-11-20T00:18:58;2.20;72.90
71668;DHT22;59504;54.806;9.640;2022-11-20T00:21:24;2.20;72.90
71668;DHT22;59504;54.806;9.640;2022-11-20T00:23:43;2.20;72.90
71668;DHT22;59504;54.806;9.640;2022-11-20T00:26:04;2.20;72.70
71668;DHT22;59504;54.806;9.640;2022-11-20T00:28:24;2.20;72.60
71668;DHT22;59504;54.806;9.640;2022-11-20T00:30:43;2.20;72.60
71668;DHT22;59504;54.806;9.640;2022-11-20T00:33:02;2.20;72.50
71668;DHT22;59504;54.806;9.640;2022-11-20T00:35:21;2.20;72.50
71668;DHT22;59504;54.806;9.640;2022-11-20T00:37:40;2.20;73.20
71668;DHT22;59504;54.806;9.640;2022-11-20T00:39:59;2.20;72.40
71668;DHT22;59504;54.806;9.640;2022-11-20T00:42:18;2.20;73.20
71668;DHT22;59504;54.806;9.640;2022-11-20T00:44:37;2.20;72.50
71668;DHT22;59504;54.806;9.640;2022-11-20T00:46:57;2.10;72.40
71668;DHT22;59504;54.806;9.640;2022-11-20T00:49:16;2.10;72.50
71668;DHT22;59504;54.806;9.640;2022-11-20T00:51:35;2.10;72.40
71668;DHT22;59504;54.806;9.640;2022-11-20T00:53:56;2.10;72.50
71668;DHT22;59504;54.806;9.640;2022-11-20T00:56:17;2.10;72.50
71668;DHT22;59504;54.806;9.640;2022-11-20T00:58:39;2.10;72.50
71668;DHT22;59504;54.806;9.640;2022-11-20T01:01:03;2.10;72.60
71668;DHT22;59504;54.806;9.640;2022-11-20T01:03:24;2.10;72.70
71668;DHT22;59504;54.806;9.640;2022-11-20T01:05:43;2.10;72.70
71668;DHT22;59504;54.806;9.640;2022-11-20T01:08:02;2.10;72.80
71668;DHT22;59504;54.806;9.640;2022-11-20T01:10:21;2.10;72.90
71668;DHT22;59504;54.806;9.640;2022-11-20T01:12:40;2.10;73.10
71668;DHT22;59504;54.806;9.640;2022-11-20T01:14:59;2.10;72.90
71668;DHT22;59504;54.806;9.640;2022-11-20T01:17:19;2.10;72.90
71668;DHT22;59504;54.806;9.640;2022-11-20T01:19:38;2.10;72.90
71668;DHT22;59504;54.806;9.640;2022-11-20T01:21:57;2.00;72.90
71668;DHT22;59504;54.806;9.640;2022-11-20T01:24:18;2.10;73.00
71668;DHT22;59504;54.806;9.640;2022-11-20T01:26:39;2.10;73.10
71668;DHT22;59504;54.806;9.640;2022-11-20T01:28:59;2.20;73.30
71668;DHT22;59504;54.806;9.640;2022-11-20T01:31:24;2.10;73.20
71668;DHT22;59504;54.806;9.640;2022-11-20T01:33:45;2.10;73.30
71668;DHT22;59504;54.806;9.640;2022-11-20T01:36:05;2.00;73.30
71668;DHT22;59504;54.806;9.640;2022-11-20T01:38:25;2.10;73.50
71668;DHT22;59504;54.806;9.640;2022-11-20T01:40:44;2.00;73.40
71668;DHT22;59504;54.806;9.640;2022-11-20T01:43:16;2.00;73.60
71668;DHT22;59504;54.806;9.640;2022-11-20T01:48:31;2.00;73.70
71668;DHT22;59504;54.806;9.640;2022-11-20T01:50:53;2.00;73.70
71668;DHT22;59504;54.806;9.640;2022-11-20T01:53:14;2.00;74.00
71668;DHT22;59504;54.806;9.640;2022-11-20T01:55:39;2.00;74.70
71668;DHT22;59504;54.806;9.640;2022-11-20T01:58:01;2.00;74.00
71668;DHT22;59504;54.806;9.640;2022-11-20T02:00:21;2.00;74.20
71668;DHT22;59504;54.806;9.640;2022-11-20T02:02:43;2.00;74.40
71668;DHT22;59504;54.806;9.640;2022-11-20T02:08:03;2.00;75.40
71668;DHT22;59504;54.806;9.640;2022-11-20T02:10:25;2.00;74.90
71668;DHT22;59504;54.806;9.640;2022-11-20T02:12:45;1.90;75.00
71668;DHT22;59504;54.806;9.640;2022-11-20T02:15:23;1.90;75.30
71668;DHT22;59504;54.806;9.640;2022-11-20T02:17:42;1.90;75.50
71668;DHT22;59504;54.806;9.640;2022-11-20T02:20:02;1.90;75.50
71668;DHT22;59504;54.806;9.640;2022-11-20T02:22:29;1.90;76.00
71668;DHT22;59504;54.806;9.640;2022-11-20T02:24:51;1.90;76.20
71668;DHT22;59504;54.806;9.640;2022-11-20T02:26:56;1.90;76.20
71668;DHT22;59504;54.806;9.640;2022-11-20T02:28:59;1.90;76.00
71668;DHT22;59504;54.806;9.640;2022-11-20T02:31:01;1.80;76.10
71668;DHT22;59504;54.806;9.640;2022-11-20T02:33:02;1.90;75.90
71668;DHT22;59504;54.806;9.640;2022-11-20T02:37:19;1.80;76.80
71668;DHT22;59504;54.806;9.640;2022-11-20T02:39:23;1.80;75.90
71668;DHT22;59504;54.806;9.640;2022-11-20T02:41:32;1.80;75.80
71668;DHT22;59504;54.806;9.640;2022-11-20T02:43:34;1.80;75.90
71668;DHT22;59504;54.806;9.640;2022-11-20T02:45:34;1.80;76.00
71668;DHT22;59504;54.806;9.640;2022-11-20T02:47:35;1.80;76.00
71668;DHT22;59504;54.806;9.640;2022-11-20T02:49:36;1.80;75.90
71668;DHT22;59504;54.806;9.640;2022-11-20T02:51:36;1.80;76.00
71668;DHT22;59504;54.806;9.640;2022-11-20T02:53:37;1.80;76.10
71668;DHT22;59504;54.806;9.640;2022-11-20T02:55:38;1.80;76.00
71668;DHT22;59504;54.806;9.640;2022-11-20T02:57:38;1.80;76.10
71668;DHT22;59504;54.806;9.640;2022-11-20T02:59:39;1.90;76.00
71668;DHT22;59504;54.806;9.640;2022-11-20T03:01:40;1.90;76.10
71668;DHT22;59504;54.806;9.640;2022-11-20T03:03:40;1.90;76.00
71668;DHT22;59504;54.806;9.640;2022-11-20T03:05:41;1.90;75.90
71668;DHT22;59504;54.806;9.640;2022-11-20T03:07:43;1.90;75.90
71668;DHT22;59504;54.806;9.640;2022-11-20T03:09:45;1.90;75.80
71668;DHT22;59504;54.806;9.640;2022-11-20T03:12:05;1.90;75.80
71668;DHT22;59504;54.806;9.640;2022-11-20T03:14:07;1.90;75.70
71668;DHT22;59504;54.806;9.640;2022-11-20T03:16:27;1.90;75.80
71668;DHT22;59504;54.806;9.640;2022-11-20T03:18:48;2.00;75.80
71668;DHT22;59504;54.806;9.640;2022-11-20T03:21:10;2.00;75.80
71668;DHT22;59504;54.806;9.640;2022-11-20T03:23:32;2.00;75.70
71668;DHT22;59504;54.806;9.640;2022-11-20T03:25:53;2.00;75.80
71668;DHT22;59504;54.806;9.640;2022-11-20T03:28:14;2.00;75.70
71668;DHT22;59504;54.806;9.640;2022-11-20T03:30:34;2.00;75.70
71668;DHT22;59504;54.806;9.640;2022-11-20T03:32:37;2.00;75.80
71668;DHT22;59504;54.806;9.640;2022-11-20T03:34:57;2.00;75.80
71668;DHT22;59504;54.806;9.640;2022-11-20T03:37:18;2.00;75.80
71668;DHT22;59504;54.806;9.640;2022-11-20T03:39:38;2.00;75.80
71668;DHT22;59504;54.806;9.640;2022-11-20T03:41:49;1.90;75.80
71668;DHT22;59504;54.806;9.640;2022-11-20T03:44:11;2.00;76.00
71668;DHT22;59504;54.806;9.640;2022-11-20T03:46:31;2.00;76.50
71668;DHT22;59504;54.806;9.640;2022-11-20T03:48:53;2.00;76.60
71668;DHT22;59504;54.806;9.640;2022-11-20T03:51:15;2.00;76.70
71668;DHT22;59504;54.806;9.640;2022-11-20T03:53:37;2.00;76.60
71668;DHT22;59504;54.806;9.640;2022-11-20T03:55:58;2.00;76.70
71668;DHT22;59504;54.806;9.640;2022-11-20T03:58:18;1.90;77.00
71668;DHT22;59504;54.806;9.640;2022-11-20T04:00:39;1.90;76.90
71668;DHT22;59504;54.806;9.640;2022-11-20T04:03:00;2.00;76.90
71668;DHT22;59504;54.806;9.640;2022-11-20T04:05:21;2.00;77.00
71668;DHT22;59504;54.806;9.640;2022-11-20T04:07:41;1.90;77.00
71668;DHT22;59504;54.806;9.640;2022-11-20T04:10:02;1.90;77.00
71668;DHT22;59504;54.806;9.640;2022-11-20T04:12:23;1.90;77.00
71668;DHT22;59504;54.806;9.640;2022-11-20T04:14:43;2.00;76.90
71668;DHT22;59504;54.806;9.640;2022-11-20T04:17:04;2.00;77.30
71668;DHT22;59504;54.806;9.640;2022-11-20T04:19:25;1.90;78.10
71668;DHT22;59504;54.806;9.640;2022-11-20T04:21:45;2.00;77.90
71668;DHT22;59504;54.806;9.640;2022-11-20T04:24:06;2.00;77.20
71668;DHT22;59504;54.806;9.640;2022-11-20T04:26:28;2.00;77.10
71668;DHT22;59504;54.806;9.640;2022-11-20T04:28:50;2.00;77.00
71668;DHT22;59504;54.806;9.640;2022-11-20T04:31:16;2.00;76.60
71668;DHT22;59504;54.806;9.640;2022-11-20T04:33:37;2.00;76.70
71668;DHT22;59504;54.806;9.640;2022-11-20T04:36:12;2.00;76.70
71668;DHT22;59504;54.806;9.640;2022-11-20T04:38:33;2.10;76.80
71668;DHT22;59504;54.806;9.640;2022-11-20T04:41:02;2.10;76.70
71668;DHT22;59504;54.806;9.640;2022-11-20T04:43:23;2.10;76.50
71668;DHT22;59504;54.806;9.640;2022-11-20T04:45:50;2.10;76.70
71668;DHT22;59504;54.806;9.640;2022-11-20T04:48:11;2.10;76.50
71668;DHT22;59504;54.806;9.640;2022-11-20T04:50:32;2.10;76.60
71668;DHT22;59504;54.806;9.640;2022-11-20T04:52:53;2.10;76.70
71668;DHT22;59504;54.806;9.640;2022-11-20T04:55:13;2.10;76.60
71668;DHT22;59504;54.806;9.640;2022-11-20T04:57:34;2.10;76.70
71668;DHT22;59504;54.806;9.640;2022-11-20T04:59:55;2.10;76.50
71668;DHT22;59504;54.806;9.640;2022-11-20T05:02:15;2.10;76.20
71668;DHT22;59504;54.806;9.640;2022-11-20T05:04:36;2.10;75.70
71668;DHT22;59504;54.806;9.640;2022-11-20T05:06:56;2.10;75.70
71668;DHT22;59504;54.806;9.640;2022-11-20T05:09:17;2.10;75.90
71668;DHT22;59504;54.806;9.640;2022-11-20T05:11:38;2.00;75.80
71668;DHT22;59504;54.806;9.640;2022-11-20T05:13:59;2.10;75.10
71668;DHT22;59504;54.806;9.640;2022-11-20T05:16:22;2.00;74.50
71668;DHT22;59504;54.806;9.640;2022-11-20T05:18:43;1.90;73.90
71668;DHT22;59504;54.806;9.640;2022-11-20T05:21:05;1.90;73.70
71668;DHT22;59504;54.806;9.640;2022-11-20T05:23:26;1.90;73.60
71668;DHT22;59504;54.806;9.640;2022-11-20T05:25:47;1.90;73.20
71668;DHT22;59504;54.806;9.640;2022-11-20T05:28:07;1.90;73.30
71668;DHT22;59504;54.806;9.640;2022-11-20T05:30:28;1.90;73.00
71668;DHT22;59504;54.806;9.640;2022-11-20T05:32:48;1.90;72.80
71668;DHT22;59504;54.806;9.640;2022-11-20T05:35:09;1.80;72.60
71668;DHT22;59504;54.806;9.640;2022-11-20T05:37:30;1.80;72.50
71668;DHT22;59504;54.806;9.640;2022-11-20T05:39:50;1.80;72.30
71668;DHT22;59504;54.806;9.640;2022-11-20T05:42:11;1.80;72.20
71668;DHT22;59504;54.806;9.640;2022-11-20T05:44:49;1.70;72.00
71668;DHT22;59504;54.806;9.640;2022-11-20T05:47:08;1.70;72.00
71668;DHT22;59504;54.806;9.640;2022-11-20T05:49:27;1.70;72.10
71668;DHT22;59504;54.806;9.640;2022-11-20T05:51:46;1.60;72.20
71668;DHT22;59504;54.806;9.640;2022-11-20T05:54:05;1.60;72.30
71668;DHT22;59504;54.806;9.640;2022-11-20T05:56:25;1.50;72.50
71668;DHT22;59504;54.806;9.640;2022-11-20T05:58:45;1.60;72.60
71668;DHT22;59504;54.806;9.640;2022-11-20T06:01:06;1.60;72.60
71668;DHT22;59504;54.806;9.640;2022-11-20T06:03:26;1.50;72.40
71668;DHT22;59504;54.806;9.640;2022-11-20T06:05:45;1.60;72.50
71668;DHT22;59504;54.806;9.640;2022-11-20T06:08:05;1.50;72.30
71668;DHT22;59504;54.806;9.640;2022-11-20T06:10:24;1.50;72.30
71668;DHT22;59504;54.806;9.640;2022-11-20T06:12:43;1.50;72.40
71668;DHT22;59504;54.806;9.640;2022-11-20T06:15:03;1.50;72.70
71668;DHT22;59504;54.806;9.640;2022-11-20T06:17:23;1.50;72.60
71668;DHT22;59504;54.806;9.640;2022-11-20T06:19:42;1.40;72.80
71668;DHT22;59504;54.806;9.640;2022-11-20T06:22:01;1.40;72.80
71668;DHT22;59504;54.806;9.640;2022-11-20T06:24:20;1.40;73.00
71668;DHT22;59504;54.806;9.640;2022-11-20T06:26:39;1.40;73.00
71668;DHT22;59504;54.806;9.640;2022-11-20T06:28:58;1.40;73.00
71668;DHT22;59504;54.806;9.640;2022-11-20T06:31:21;1.40;72.80
71668;DHT22;59504;54.806;9.640;2022-11-20T06:33:42;1.40;72.90
71668;DHT22;59504;54.806;9.640;2022-11-20T06:36:01;1.30;72.80
71668;DHT22;59504;54.806;9.640;2022-11-20T06:38:21;1.40;72.80
71668;DHT22;59504;54.806;9.640;2022-11-20T06:40:41;1.30;72.90
71668;DHT22;59504;54.806;9.640;2022-11-20T06:43:00;1.30;73.10
71668;DHT22;59504;54.806;9.640;2022-11-20T06:45:20;1.20;73.20
71668;DHT22;59504;54.806;9.640;2022-11-20T06:47:39;1.30;73.40
71668;DHT22;59504;54.806;9.640;2022-11-20T06:49:58;1.30;73.50
71668;DHT22;59504;54.806;9.640;2022-11-20T06:52:17;1.30;73.50
71668;DHT22;59504;54.806;9.640;2022-11-20T06:54:36;1.30;73.70
71668;DHT22;59504;54.806;9.640;2022-11-20T06:56:55;1.30;73.60
71668;DHT22;59504;54.806;9.640;2022-11-20T06:59:15;1.30;74.00
71668;DHT22;59504;54.806;9.640;2022-11-20T07:01:34;1.40;74.00
71668;DHT22;59504;54.806;9.640;2022-11-20T07:03:53;1.30;74.10
71668;DHT22;59504;54.806;9.640;2022-11-20T07:06:12;1.30;74.10
71668;DHT22;59504;54.806;9.640;2022-11-20T07:08:32;1.30;74.00
71668;DHT22;59504;54.806;9.640;2022-11-20T07:10:52;1.40;74.00
71668;DHT22;59504;54.806;9.640;2022-11-20T07:13:12;1.40;73.90
71668;DHT22;59504;54.806;9.640;2022-11-20T07:15:31;1.40;73.90
71668;DHT22;59504;54.806;9.640;2022-11-20T07:17:50;1.40;73.80
71668;DHT22;59504;54.806;9.640;2022-11-20T07:20:10;1.40;73.80
71668;DHT22;59504;54.806;9.640;2022-11-20T07:22:29;1.40;73.90
71668;DHT22;59504;54.806;9.640;2022-11-20T07:24:48;1.40;73.70
71668;DHT22;59504;54.806;9.640;2022-11-20T07:27:07;1.40;73.50
71668;DHT22;59504;54.806;9.640;2022-11-20T07:29:26;1.40;73.50
71668;DHT22;59504;54.806;9.640;2022-11-20T07:31:45;1.50;73.50
71668;DHT22;59504;54.806;9.640;2022-11-20T07:34:04;1.40;73.40
71668;DHT22;59504;54.806;9.640;2022-11-20T07:36:24;1.50;73.40
71668;DHT22;59504;54.806;9.640;2022-11-20T07:38:43;1.50;73.40
71668;DHT22;59504;54.806;9.640;2022-11-20T07:41:02;1.50;73.30
71668;DHT22;59504;54.806;9.640;2022-11-20T07:43:21;1.50;72.80
71668;DHT22;59504;54.806;9.640;2022-11-20T07:45:40;1.50;72.80
71668;DHT22;59504;54.806;9.640;2022-11-20T07:47:59;1.40;72.50
71668;DHT22;59504;54.806;9.640;2022-11-20T07:50:19;1.40;72.40
71668;DHT22;59504;54.806;9.640;2022-11-20T07:52:38;1.40;72.40
71668;DHT22;59504;54.806;9.640;2022-11-20T07:54:57;1.40;72.10
71668;DHT22;59504;54.806;9.640;2022-11-20T07:57:16;1.40;71.80
71668;DHT22;59504;54.806;9.640;2022-11-20T07:59:35;1.50;71.60
71668;DHT22;59504;54.806;9.640;2022-11-20T08:01:55;1.40;71.40
71668;DHT22;59504;54.806;9.640;2022-11-20T08:04:14;1.30;71.20
71668;DHT22;59504;54.806;9.640;2022-11-20T08:06:35;1.40;71.50
71668;DHT22;59504;54.806;9.640;2022-11-20T08:08:54;1.40;71.40
71668;DHT22;59504;54.806;9.640;2022-11-20T08:11:13;1.30;71.10
71668;DHT22;59504;54.806;9.640;2022-11-20T08:13:51;1.30;71.00
71668;DHT22;59504;54.806;9.640;2022-11-20T08:16:29;1.30;71.10
71668;DHT22;59504;54.806;9.640;2022-11-20T08:18:48;1.30;71.10
71668;DHT22;59504;54.806;9.640;2022-11-20T08:21:08;1.30;71.30
71668;DHT22;59504;54.806;9.640;2022-11-20T08:23:27;1.30;71.40
71668;DHT22;59504;54.806;9.640;2022-11-20T08:25:49;1.30;71.50
71668;DHT22;59504;54.806;9.640;2022-11-20T08:28:10;1.30;71.80
71668;DHT22;59504;54.806;9.640;2022-11-20T08:30:29;1.30;71.90
71668;DHT22;59504;54.806;9.640;2022-11-20T08:32:48;1.30;71.90
71668;DHT22;59504;54.806;9.640;2022-11-20T08:35:07;1.40;72.00
71668;DHT22;59504;54.806;9.640;2022-11-20T08:37:27;1.30;71.80
71668;DHT22;59504;54.806;9.640;2022-11-20T08:39:46;1.30;71.80
71668;DHT22;59504;54.806;9.640;2022-11-20T08:42:09;1.30;71.60
71668;DHT22;59504;54.806;9.640;2022-11-20T08:44:28;1.30;71.00
71668;DHT22;59504;54.806;9.640;2022-11-20T08:46:47;1.30;70.90
71668;DHT22;59504;54.806;9.640;2022-11-20T08:49:09;1.30;70.90
71668;DHT22;59504;54.806;9.640;2022-11-20T08:51:28;1.30;70.80
71668;DHT22;59504;54.806;9.640;2022-11-20T08:53:47;1.30;70.70
71668;DHT22;59504;54.806;9.640;2022-11-20T08:56:07;1.30;70.60
71668;DHT22;59504;54.806;9.640;2022-11-20T08:58:28;1.30;70.60
71668;DHT22;59504;54.806;9.640;2022-11-20T09:00:47;1.30;70.70
71668;DHT22;59504;54.806;9.640;2022-11-20T09:03:06;1.30;70.60
71668;DHT22;59504;54.806;9.640;2022-11-20T09:05:25;1.20;70.50
71668;DHT22;59504;54.806;9.640;2022-11-20T09:07:45;1.20;70.50
71668;DHT22;59504;54.806;9.640;2022-11-20T09:10:04;1.20;70.10
71668;DHT22;59504;54.806;9.640;2022-11-20T09:12:23;1.20;70.20
71668;DHT22;59504;54.806;9.640;2022-11-20T09:14:42;1.20;70.30
71668;DHT22;59504;54.806;9.640;2022-11-20T09:17:01;1.20;70.20
71668;DHT22;59504;54.806;9.640;2022-11-20T09:19:21;1.20;70.50
71668;DHT22;59504;54.806;9.640;2022-11-20T09:21:40;1.20;70.70
71668;DHT22;59504;54.806;9.640;2022-11-20T09:23:59;1.30;71.00
71668;DHT22;59504;54.806;9.640;2022-11-20T09:26:18;1.30;71.20
71668;DHT22;59504;54.806;9.640;2022-11-20T09:28:39;1.20;71.40
71668;DHT22;59504;54.806;9.640;2022-11-20T09:30:59;1.30;71.60
71668;DHT22;59504;54.806;9.640;2022-11-20T09:33:18;1.30;71.30
71668;DHT22;59504;54.806;9.640;2022-11-20T09:35:37;1.30;70.80
71668;DHT22;59504;54.806;9.640;2022-11-20T09:37:56;1.40;70.80
71668;DHT22;59504;54.806;9.640;2022-11-20T09:40:22;1.40;70.90
71668;DHT22;59504;54.806;9.640;2022-11-20T09:45:37;1.50;70.80
71668;DHT22;59504;54.806;9.640;2022-11-20T09:50:32;1.50;70.10
71668;DHT22;59504;54.806;9.640;2022-11-20T09:55:36;1.50;69.70
71668;DHT22;59504;54.806;9.640;2022-11-20T09:57:56;1.50;70.10
71668;DHT22;59504;54.806;9.640;2022-11-20T10:00:17;1.60;70.40
71668;DHT22;59504;54.806;9.640;2022-11-20T10:02:55;1.60;70.50
71668;DHT22;59504;54.806;9.640;2022-11-20T10:05:20;1.60;70.40
71668;DHT22;59504;54.806;9.640;2022-11-20T10:10:54;1.70;70.10
71668;DHT22;59504;54.806;9.640;2022-11-20T10:14:18;1.80;70.20
71668;DHT22;59504;54.806;9.640;2022-11-20T10:18:51;1.80;69.70
71668;DHT22;59504;54.806;9.640;2022-11-20T10:21:26;1.80;69.80
71668;DHT22;59504;54.806;9.640;2022-11-20T10:24:19;1.90;69.40
71668;DHT22;59504;54.806;9.640;2022-11-20T10:29:42;1.90;68.90
71668;DHT22;59504;54.806;9.640;2022-11-20T10:32:07;2.00;69.10
71668;DHT22;59504;54.806;9.640;2022-11-20T10:36:44;2.00;69.20
71668;DHT22;59504;54.806;9.640;2022-11-20T10:38:57;2.00;68.80
71668;DHT22;59504;54.806;9.640;2022-11-20T10:41:01;2.00;69.00
71668;DHT22;59504;54.806;9.640;2022-11-20T10:43:32;2.00;69.10
71668;DHT22;59504;54.806;9.640;2022-11-20T10:45:43;2.00;68.90
71668;DHT22;59504;54.806;9.640;2022-11-20T10:47:45;2.00;68.70
71668;DHT22;59504;54.806;9.640;2022-11-20T10:49:52;2.00;68.70
71668;DHT22;59504;54.806;9.640;2022-11-20T10:52:25;2.00;68.30
71668;DHT22;59504;54.806;9.640;2022-11-20T10:56:46;2.10;68.60
71668;DHT22;59504;54.806;9.640;2022-11-20T11:01:24;2.10;68.90
71668;DHT22;59504;54.806;9.640;2022-11-20T11:03:28;2.10;68.90
71668;DHT22;59504;54.806;9.640;2022-11-20T11:05:39;2.20;69.10
71668;DHT22;59504;54.806;9.640;2022-11-20T11:07:41;2.20;69.00
71668;DHT22;59504;54.806;9.640;2022-11-20T11:09:46;2.20;68.80
71668;DHT22;59504;54.806;9.640;2022-11-20T11:11:47;2.20;68.50
71668;DHT22;59504;54.806;9.640;2022-11-20T11:13:48;2.20;68.20
71668;DHT22;59504;54.806;9.640;2022-11-20T11:15:49;2.20;67.80
71668;DHT22;59504;54.806;9.640;2022-11-20T11:17:50;2.20;67.70
71668;DHT22;59504;54.806;9.640;2022-11-20T11:20:15;2.20;67.40
71668;DHT22;59504;54.806;9.640;2022-11-20T11:22:18;2.20;66.60
71668;DHT22;59504;54.806;9.640;2022-11-20T11:24:23;2.20;66.50
71668;DHT22;59504;54.806;9.640;2022-11-20T11:26:25;2.20;66.50
71668;DHT22;59504;54.806;9.640;2022-11-20T11:28:27;2.20;66.50
71668;DHT22;59504;54.806;9.640;2022-11-20T11:30:29;2.20;66.70
71668;DHT22;59504;54.806;9.640;2022-11-20T11:32:31;2.20;66.60
71668;DHT22;59504;54.806;9.640;2022-11-20T11:34:32;2.20;66.50
71668;DHT22;59504;54.806;9.640;2022-11-20T11:36:34;2.20;66.10
71668;DHT22;59504;54.806;9.640;2022-11-20T11:38:36;2.20;66.40
71668;DHT22;59504;54.806;9.640;2022-11-20T11:40:40;2.10;66.40
71668;DHT22;59504;54.806;9.640;2022-11-20T11:42:54;2.20;66.70
71668;DHT22;59504;54.806;9.640;2022-11-20T11:44:59;2.10;66.60
71668;DHT22;59504;54.806;9.640;2022-11-20T11:49:45;2.20;67.00
71668;DHT22;59504;54.806;9.640;2022-11-20T11:52:32;2.20;66.90
71668;DHT22;59504;54.806;9.640;2022-11-20T11:54:59;2.20;65.50
71668;DHT22;59504;54.806;9.640;2022-11-20T12:00:25;2.30;66.00
71668;DHT22;59504;54.806;9.640;2022-11-20T12:05:20;2.30;64.40
71668;DHT22;59504;54.806;9.640;2022-11-20T12:07:51;2.30;64.20
71668;DHT22;59504;54.806;9.640;2022-11-20T12:10:21;2.30;64.30
71668;DHT22;59504;54.806;9.640;2022-11-20T12:12:50;2.30;64.10
71668;DHT22;59504;54.806;9.640;2022-11-20T12:15:19;2.40;64.20
71668;DHT22;59504;54.806;9.640;2022-11-20T12:17:25;2.50;64.40
71668;DHT22;59504;54.806;9.640;2022-11-20T12:19:46;2.50;64.70
71668;DHT22;59504;54.806;9.640;2022-11-20T12:30:11;2.60;61.70
71668;DHT22;59504;54.806;9.640;2022-11-20T12:35:51;2.60;61.30
71668;DHT22;59504;54.806;9.640;2022-11-20T12:43:22;2.50;59.90
71668;DHT22;59504;54.806;9.640;2022-11-20T12:46:25;2.50;59.60
71668;DHT22;59504;54.806;9.640;2022-11-20T12:49:09;2.50;59.00
71668;DHT22;59504;54.806;9.640;2022-11-20T12:51:51;2.50;59.00
71668;DHT22;59504;54.806;9.640;2022-11-20T12:57:00;2.40;58.40
71668;DHT22;59504;54.806;9.640;2022-11-20T13:02:35;2.50;59.30
71668;DHT22;59504;54.806;9.640;2022-11-20T13:04:55;2.50;59.00
71668;DHT22;59504;54.806;9.640;2022-11-20T13:07:00;2.50;59.50
71668;DHT22;59504;54.806;9.640;2022-11-20T13:09:02;2.50;59.10
71668;DHT22;59504;54.806;9.640;2022-11-20T13:14:55;2.50;59.00
71668;DHT22;59504;54.806;9.640;2022-11-20T13:16:50;2.50;58.50
71668;DHT22;59504;54.806;9.640;2022-11-20T13:18:52;2.50;58.80
71668;DHT22;59504;54.806;9.640;2022-11-20T13:20:53;2.50;58.90
71668;DHT22;59504;54.806;9.640;2022-11-20T13:22:56;2.50;59.20
71668;DHT22;59504;54.806;9.640;2022-11-20T13:24:57;2.50;58.90
71668;DHT22;59504;54.806;9.640;2022-11-20T13:29:18;2.40;58.40
71668;DHT22;59504;54.806;9.640;2022-11-20T13:31:30;2.50;58.80
71668;DHT22;59504;54.806;9.640;2022-11-20T13:33:36;2.50;59.10
71668;DHT22;59504;54.806;9.640;2022-11-20T13:35:42;2.50;59.20
71668;DHT22;59504;54.806;9.640;2022-11-20T13:37:43;2.50;59.00
71668;DHT22;59504;54.806;9.640;2022-11-20T13:39:44;2.40;58.50
71668;DHT22;59504;54.806;9.640;2022-11-20T13:41:54;2.40;58.40
71668;DHT22;59504;54.806;9.640;2022-11-20T13:44:05;2.40;58.50
71668;DHT22;59504;54.806;9.640;2022-11-20T13:46:09;2.50;58.80
71668;DHT22;59504;54.806;9.640;2022-11-20T13:48:21;2.40;58.90
71668;DHT22;59504;54.806;9.640;2022-11-20T13:50:39;2.40;58.30
71668;DHT22;59504;54.806;9.640;2022-11-20T13:55:07;2.40;58.60
71668;DHT22;59504;54.806;9.640;2022-11-20T13:59:49;2.40;57.90
71668;DHT22;59504;54.806;9.640;2022-11-20T14:01:54;2.40;57.40
71668;DHT22;59504;54.806;9.640;2022-11-20T14:03:55;2.50;57.90
71668;DHT22;59504;54.806;9.640;2022-11-20T14:05:59;2.40;57.30
71668;DHT22;59504;54.806;9.640;2022-11-20T14:08:04;2.40;57.10
71668;DHT22;59504;54.806;9.640;2022-11-20T14:10:06;2.40;57.60
71668;DHT22;59504;54.806;9.640;2022-11-20T14:12:16;2.50;58.00
71668;DHT22;59504;54.806;9.640;2022-11-20T14:14:20;2.50;57.80
71668;DHT22;59504;54.806;9.640;2022-11-20T14:16:23;2.50;58.10
71668;DHT22;59504;54.806;9.640;2022-11-20T14:18:26;2.50;57.70
71668;DHT22;59504;54.806;9.640;2022-11-20T14:20:29;2.60;57.80
71668;DHT22;59504;54.806;9.640;2022-11-20T14:22:31;2.60;58.10
71668;DHT22;59504;54.806;9.640;2022-11-20T14:24:32;2.50;58.00
71668;DHT22;59504;54.806;9.640;2022-11-20T14:26:33;2.50;58.20
71668;DHT22;59504;54.806;9.640;2022-11-20T14:28:34;2.60;58.20
71668;DHT22;59504;54.806;9.640;2022-11-20T14:30:46;2.60;57.90
71668;DHT22;59504;54.806;9.640;2022-11-20T14:32:48;2.60;57.90
71668;DHT22;59504;54.806;9.640;2022-11-20T14:34:50;2.60;58.00
71668;DHT22;59504;54.806;9.640;2022-11-20T14:36:57;2.60;57.80
71668;DHT22;59504;54.806;9.640;2022-11-20T14:38:59;2.50;57.90
71668;DHT22;59504;54.806;9.640;2022-11-20T14:41:17;2.50;57.90
71668;DHT22;59504;54.806;9.640;2022-11-20T14:43:21;2.50;58.00
71668;DHT22;59504;54.806;9.640;2022-11-20T14:45:22;2.50;57.80
71668;DHT22;59504;54.806;9.640;2022-11-20T14:47:26;2.50;58.00
71668;DHT22;59504;54.806;9.640;2022-11-20T14:49:29;2.50;57.80
71668;DHT22;59504;54.806;9.640;2022-11-20T14:51:39;2.50;57.90
71668;DHT22;59504;54.806;9.640;2022-11-20T14:53:43;2.50;58.00
71668;DHT22;59504;54.806;9.640;2022-11-20T14:55:43;2.40;57.80
71668;DHT22;59504;54.806;9.640;2022-11-20T14:57:54;2.40;57.70
71668;DHT22;59504;54.806;9.640;2022-11-20T15:02:12;2.40;57.70
71668;DHT22;59504;54.806;9.640;2022-11-20T15:04:13;2.30;58.00
71668;DHT22;59504;54.806;9.640;2022-11-20T15:06:14;2.30;58.20
71668;DHT22;59504;54.806;9.640;2022-11-20T15:08:15;2.30;58.30
71668;DHT22;59504;54.806;9.640;2022-11-20T15:10:23;2.20;58.30
71668;DHT22;59504;54.806;9.640;2022-11-20T15:12:25;2.20;58.50
71668;DHT22;59504;54.806;9.640;2022-11-20T15:14:27;2.20;58.70
71668;DHT22;59504;54.806;9.640;2022-11-20T15:16:28;2.20;59.00
71668;DHT22;59504;54.806;9.640;2022-11-20T15:18:37;2.10;59.00
71668;DHT22;59504;54.806;9.640;2022-11-20T15:20:41;2.10;59.00
71668;DHT22;59504;54.806;9.640;2022-11-20T15:22:42;2.10;59.10
71668;DHT22;59504;54.806;9.640;2022-11-20T15:24:43;2.10;59.20
71668;DHT22;59504;54.806;9.640;2022-11-20T15:26:44;2.00;59.30
71668;DHT22;59504;54.806;9.640;2022-11-20T15:28:46;2.00;59.30
71668;DHT22;59504;54.806;9.640;2022-11-20T15:30:49;2.00;59.40
71668;DHT22;59504;54.806;9.640;2022-11-20T15:32:50;2.00;59.40
71668;DHT22;59504;54.806;9.640;2022-11-20T15:34:50;1.90;59.40
71668;DHT22;59504;54.806;9.640;2022-11-20T15:36:51;1.90;59.50
71668;DHT22;59504;54.806;9.640;2022-11-20T15:38:51;1.90;59.30
71668;DHT22;59504;54.806;9.640;2022-11-20T15:40:52;1.90;59.40
71668;DHT22;59504;54.806;9.640;2022-11-20T15:42:53;2.00;59.40
71668;DHT22;59504;54.806;9.640;2022-11-20T15:45:09;1.80;59.30
71668;DHT22;59504;54.806;9.640;2022-11-20T15:47:10;1.80;59.30